Terminal Aerodrome Forecast
Issued by NWS Bismarck, ND

Home | Current Version | Previous Version | Graphics & Text | Print | Product List | Glossary On
Versions: 1 2 3 4 5 6 7 8 9 10 11 12 13 14 15 16 17
000
FTUS43 KBIS 270500
TAFBIS
TAF
KBIS 270539Z 2706/2806 08004KT P6SM SCT120 SCT180
     FM270900 12005KT P6SM SCT140
     FM271300 14004KT P6SM FEW300
     FM271700 19005KT P6SM SKC
     FM272000 22004KT P6SM SKC
     FM280100 10002KT P6SM SCT250=

USA.gov is the U.S. government's official web portal to all federal, state and local government web resources and services.